sensor_id;sensor_type;location;lat;lon;timestamp;P1;durP1;ratioP1;P2;durP2;ratioP2
24650;SDS011;12783;48.824;8.662;2023-01-01T00:01:39;4.55;;;2.22;;
24650;SDS011;12783;48.824;8.662;2023-01-01T00:04:10;3.67;;;2.17;;
24650;SDS011;12783;48.824;8.662;2023-01-01T00:06:37;4.63;;;1.90;;
24650;SDS011;12783;48.824;8.662;2023-01-01T00:09:04;1.73;;;1.52;;
24650;SDS011;12783;48.824;8.662;2023-01-01T00:11:50;3.55;;;1.30;;
24650;SDS011;12783;48.824;8.662;2023-01-01T00:14:17;4.20;;;1.70;;
24650;SDS011;12783;48.824;8.662;2023-01-01T00:16:43;2.47;;;1.88;;
24650;SDS011;12783;48.824;8.662;2023-01-01T00:19:10;3.67;;;1.50;;
24650;SDS011;12783;48.824;8.662;2023-01-01T00:21:37;2.05;;;1.42;;
24650;SDS011;12783;48.824;8.662;2023-01-01T00:24:05;1.55;;;1.40;;
24650;SDS011;12783;48.824;8.662;2023-01-01T00:26:32;6.22;;;1.50;;
24650;SDS011;12783;48.824;8.662;2023-01-01T00:29:00;4.10;;;1.48;;
24650;SDS011;12783;48.824;8.662;2023-01-01T00:31:27;2.22;;;1.33;;
24650;SDS011;12783;48.824;8.662;2023-01-01T00:33:54;2.17;;;1.40;;
24650;SDS011;12783;48.824;8.662;2023-01-01T00:36:22;1.50;;;1.20;;
24650;SDS011;12783;48.824;8.662;2023-01-01T00:38:51;2.20;;;1.20;;
24650;SDS011;12783;48.824;8.662;2023-01-01T00:41:18;1.67;;;1.10;;
24650;SDS011;12783;48.824;8.662;2023-01-01T00:43:45;2.28;;;1.60;;
24650;SDS011;12783;48.824;8.662;2023-01-01T00:46:12;2.47;;;1.55;;
24650;SDS011;12783;48.824;8.662;2023-01-01T00:48:39;3.30;;;1.50;;
24650;SDS011;12783;48.824;8.662;2023-01-01T00:51:06;1.90;;;1.30;;
24650;SDS011;12783;48.824;8.662;2023-01-01T00:53:33;2.45;;;1.58;;
24650;SDS011;12783;48.824;8.662;2023-01-01T00:55:59;3.03;;;1.50;;
24650;SDS011;12783;48.824;8.662;2023-01-01T00:58:26;3.15;;;1.77;;
24650;SDS011;12783;48.824;8.662;2023-01-01T01:00:53;1.40;;;1.20;;
24650;SDS011;12783;48.824;8.662;2023-01-01T01:03:20;3.60;;;1.52;;
24650;SDS011;12783;48.824;8.662;2023-01-01T01:05:57;1.90;;;1.55;;
24650;SDS011;12783;48.824;8.662;2023-01-01T01:08:25;1.88;;;1.23;;
24650;SDS011;12783;48.824;8.662;2023-01-01T01:11:06;3.53;;;1.23;;
24650;SDS011;12783;48.824;8.662;2023-01-01T01:13:37;2.50;;;1.35;;
24650;SDS011;12783;48.824;8.662;2023-01-01T01:16:14;2.92;;;1.40;;
24650;SDS011;12783;48.824;8.662;2023-01-01T01:18:43;3.22;;;1.67;;
24650;SDS011;12783;48.824;8.662;2023-01-01T01:21:14;1.65;;;1.27;;
24650;SDS011;12783;48.824;8.662;2023-01-01T01:23:41;2.85;;;1.30;;
24650;SDS011;12783;48.824;8.662;2023-01-01T01:28:45;3.20;;;1.20;;
24650;SDS011;12783;48.824;8.662;2023-01-01T01:31:15;2.10;;;1.48;;
24650;SDS011;12783;48.824;8.662;2023-01-01T01:33:43;2.33;;;1.17;;
24650;SDS011;12783;48.824;8.662;2023-01-01T01:36:12;5.07;;;1.40;;
24650;SDS011;12783;48.824;8.662;2023-01-01T01:38:39;3.35;;;1.40;;
24650;SDS011;12783;48.824;8.662;2023-01-01T01:41:06;1.95;;;1.17;;
24650;SDS011;12783;48.824;8.662;2023-01-01T01:46:02;1.98;;;1.30;;
24650;SDS011;12783;48.824;8.662;2023-01-01T01:48:41;2.42;;;1.33;;
24650;SDS011;12783;48.824;8.662;2023-01-01T01:51:10;2.67;;;1.52;;
24650;SDS011;12783;48.824;8.662;2023-01-01T01:53:40;3.55;;;1.40;;
24650;SDS011;12783;48.824;8.662;2023-01-01T01:56:12;3.85;;;1.60;;
24650;SDS011;12783;48.824;8.662;2023-01-01T01:58:41;2.70;;;1.33;;
24650;SDS011;12783;48.824;8.662;2023-01-01T02:01:07;5.03;;;1.52;;
24650;SDS011;12783;48.824;8.662;2023-01-01T02:06:15;4.10;;;1.63;;
24650;SDS011;12783;48.824;8.662;2023-01-01T02:08:43;3.85;;;1.77;;
24650;SDS011;12783;48.824;8.662;2023-01-01T02:11:10;3.83;;;1.50;;
24650;SDS011;12783;48.824;8.662;2023-01-01T02:13:36;2.97;;;1.80;;
24650;SDS011;12783;48.824;8.662;2023-01-01T02:16:09;4.43;;;2.10;;
24650;SDS011;12783;48.824;8.662;2023-01-01T02:21:45;4.13;;;1.88;;
24650;SDS011;12783;48.824;8.662;2023-01-01T02:30:19;4.15;;;2.50;;
24650;SDS011;12783;48.824;8.662;2023-01-01T02:32:48;6.25;;;2.28;;
24650;SDS011;12783;48.824;8.662;2023-01-01T02:35:21;5.40;;;2.38;;
24650;SDS011;12783;48.824;8.662;2023-01-01T02:38:24;6.95;;;2.72;;
24650;SDS011;12783;48.824;8.662;2023-01-01T02:40:56;3.60;;;2.22;;
24650;SDS011;12783;48.824;8.662;2023-01-01T02:43:26;3.92;;;2.28;;
24650;SDS011;12783;48.824;8.662;2023-01-01T02:45:53;3.55;;;2.00;;
24650;SDS011;12783;48.824;8.662;2023-01-01T02:54:26;4.72;;;2.40;;
24650;SDS011;12783;48.824;8.662;2023-01-01T02:56:35;5.72;;;1.95;;
24650;SDS011;12783;48.824;8.662;2023-01-01T03:05:34;8.88;;;1.80;;
24650;SDS011;12783;48.824;8.662;2023-01-01T03:11:23;5.25;;;2.13;;
24650;SDS011;12783;48.824;8.662;2023-01-01T03:14:05;2.03;;;1.58;;
24650;SDS011;12783;48.824;8.662;2023-01-01T03:16:48;2.78;;;1.63;;
24650;SDS011;12783;48.824;8.662;2023-01-01T03:19:18;2.42;;;1.98;;
24650;SDS011;12783;48.824;8.662;2023-01-01T03:21:48;4.15;;;1.70;;
24650;SDS011;12783;48.824;8.662;2023-01-01T03:24:31;4.67;;;2.57;;
24650;SDS011;12783;48.824;8.662;2023-01-01T03:29:50;2.10;;;1.38;;
24650;SDS011;12783;48.824;8.662;2023-01-01T03:32:19;2.28;;;1.60;;
24650;SDS011;12783;48.824;8.662;2023-01-01T03:35:16;6.53;;;1.88;;
24650;SDS011;12783;48.824;8.662;2023-01-01T03:37:46;4.72;;;1.80;;
24650;SDS011;12783;48.824;8.662;2023-01-01T03:40:15;2.75;;;1.50;;
24650;SDS011;12783;48.824;8.662;2023-01-01T03:42:44;3.72;;;1.63;;
24650;SDS011;12783;48.824;8.662;2023-01-01T03:45:25;4.68;;;1.55;;
24650;SDS011;12783;48.824;8.662;2023-01-01T03:48:02;10.80;;;1.95;;
24650;SDS011;12783;48.824;8.662;2023-01-01T03:50:39;2.83;;;1.55;;
24650;SDS011;12783;48.824;8.662;2023-01-01T03:55:45;3.35;;;1.60;;
24650;SDS011;12783;48.824;8.662;2023-01-01T03:58:31;4.50;;;1.48;;
24650;SDS011;12783;48.824;8.662;2023-01-01T04:01:07;3.38;;;1.60;;
24650;SDS011;12783;48.824;8.662;2023-01-01T04:03:37;2.58;;;1.48;;
24650;SDS011;12783;48.824;8.662;2023-01-01T04:06:04;2.53;;;1.38;;
24650;SDS011;12783;48.824;8.662;2023-01-01T04:08:31;3.20;;;1.60;;
24650;SDS011;12783;48.824;8.662;2023-01-01T04:10:59;3.70;;;1.35;;
24650;SDS011;12783;48.824;8.662;2023-01-01T04:13:46;6.50;;;1.50;;
24650;SDS011;12783;48.824;8.662;2023-01-01T04:16:13;6.88;;;1.38;;
24650;SDS011;12783;48.824;8.662;2023-01-01T04:18:40;3.17;;;1.45;;
24650;SDS011;12783;48.824;8.662;2023-01-01T04:21:07;3.35;;;1.10;;
24650;SDS011;12783;48.824;8.662;2023-01-01T04:23:33;3.63;;;1.50;;
24650;SDS011;12783;48.824;8.662;2023-01-01T04:26:00;2.67;;;1.63;;
24650;SDS011;12783;48.824;8.662;2023-01-01T04:28:27;4.40;;;1.45;;
24650;SDS011;12783;48.824;8.662;2023-01-01T04:30:53;3.55;;;1.30;;
24650;SDS011;12783;48.824;8.662;2023-01-01T04:33:19;6.07;;;1.52;;
24650;SDS011;12783;48.824;8.662;2023-01-01T04:35:47;3.13;;;1.20;;
24650;SDS011;12783;48.824;8.662;2023-01-01T04:38:13;6.00;;;1.55;;
24650;SDS011;12783;48.824;8.662;2023-01-01T04:40:40;4.13;;;1.20;;
24650;SDS011;12783;48.824;8.662;2023-01-01T04:43:07;7.68;;;1.20;;
24650;SDS011;12783;48.824;8.662;2023-01-01T04:45:33;3.03;;;1.40;;
24650;SDS011;12783;48.824;8.662;2023-01-01T04:48:03;3.15;;;1.25;;
24650;SDS011;12783;48.824;8.662;2023-01-01T04:50:30;5.05;;;1.15;;
24650;SDS011;12783;48.824;8.662;2023-01-01T04:52:57;4.30;;;1.40;;
24650;SDS011;12783;48.824;8.662;2023-01-01T04:55:24;7.30;;;1.80;;
24650;SDS011;12783;48.824;8.662;2023-01-01T04:57:51;6.10;;;1.40;;
24650;SDS011;12783;48.824;8.662;2023-01-01T05:00:17;2.30;;;1.20;;
24650;SDS011;12783;48.824;8.662;2023-01-01T05:02:44;9.05;;;1.20;;
24650;SDS011;12783;48.824;8.662;2023-01-01T05:05:11;2.35;;;1.10;;
24650;SDS011;12783;48.824;8.662;2023-01-01T05:07:38;2.95;;;1.30;;
24650;SDS011;12783;48.824;8.662;2023-01-01T05:10:04;5.72;;;1.80;;
24650;SDS011;12783;48.824;8.662;2023-01-01T05:12:31;3.95;;;1.25;;
24650;SDS011;12783;48.824;8.662;2023-01-01T05:14:58;4.82;;;1.02;;
24650;SDS011;12783;48.824;8.662;2023-01-01T05:17:25;2.35;;;1.02;;
24650;SDS011;12783;48.824;8.662;2023-01-01T05:19:51;5.00;;;1.38;;
24650;SDS011;12783;48.824;8.662;2023-01-01T05:22:18;4.50;;;1.30;;
24650;SDS011;12783;48.824;8.662;2023-01-01T05:24:45;8.07;;;1.60;;
24650;SDS011;12783;48.824;8.662;2023-01-01T05:27:11;3.17;;;1.13;;
24650;SDS011;12783;48.824;8.662;2023-01-01T05:29:38;5.30;;;1.45;;
24650;SDS011;12783;48.824;8.662;2023-01-01T05:32:04;3.03;;;1.30;;
24650;SDS011;12783;48.824;8.662;2023-01-01T05:34:31;6.45;;;1.38;;
24650;SDS011;12783;48.824;8.662;2023-01-01T05:36:57;3.53;;;1.20;;
24650;SDS011;12783;48.824;8.662;2023-01-01T05:39:23;1.67;;;1.05;;
24650;SDS011;12783;48.824;8.662;2023-01-01T05:41:50;3.40;;;1.30;;
24650;SDS011;12783;48.824;8.662;2023-01-01T05:44:17;3.25;;;1.20;;
24650;SDS011;12783;48.824;8.662;2023-01-01T05:46:44;4.10;;;1.40;;
24650;SDS011;12783;48.824;8.662;2023-01-01T05:49:11;6.90;;;1.40;;
24650;SDS011;12783;48.824;8.662;2023-01-01T05:51:38;4.57;;;1.30;;
24650;SDS011;12783;48.824;8.662;2023-01-01T05:54:03;2.92;;;1.30;;
24650;SDS011;12783;48.824;8.662;2023-01-01T05:56:30;6.45;;;1.35;;
24650;SDS011;12783;48.824;8.662;2023-01-01T05:58:57;3.53;;;1.50;;
24650;SDS011;12783;48.824;8.662;2023-01-01T06:01:25;2.60;;;1.05;;
24650;SDS011;12783;48.824;8.662;2023-01-01T06:03:53;4.43;;;1.30;;
24650;SDS011;12783;48.824;8.662;2023-01-01T06:06:22;7.57;;;1.80;;
24650;SDS011;12783;48.824;8.662;2023-01-01T06:08:54;5.35;;;1.30;;
24650;SDS011;12783;48.824;8.662;2023-01-01T06:11:28;3.15;;;1.42;;
24650;SDS011;12783;48.824;8.662;2023-01-01T06:13:57;4.05;;;1.27;;
24650;SDS011;12783;48.824;8.662;2023-01-01T06:16:25;7.07;;;1.27;;
24650;SDS011;12783;48.824;8.662;2023-01-01T06:18:53;5.25;;;1.40;;
24650;SDS011;12783;48.824;8.662;2023-01-01T06:21:21;4.13;;;1.30;;
24650;SDS011;12783;48.824;8.662;2023-01-01T06:23:49;5.75;;;1.30;;
24650;SDS011;12783;48.824;8.662;2023-01-01T06:26:17;4.00;;;1.42;;
24650;SDS011;12783;48.824;8.662;2023-01-01T06:28:45;4.25;;;1.40;;
24650;SDS011;12783;48.824;8.662;2023-01-01T06:31:13;7.10;;;1.17;;
24650;SDS011;12783;48.824;8.662;2023-01-01T06:33:42;8.10;;;1.52;;
24650;SDS011;12783;48.824;8.662;2023-01-01T06:36:09;5.57;;;1.50;;
24650;SDS011;12783;48.824;8.662;2023-01-01T06:38:38;3.83;;;1.38;;
24650;SDS011;12783;48.824;8.662;2023-01-01T06:41:07;2.92;;;1.30;;
24650;SDS011;12783;48.824;8.662;2023-01-01T06:43:36;3.55;;;1.70;;
24650;SDS011;12783;48.824;8.662;2023-01-01T06:46:05;6.35;;;1.33;;
24650;SDS011;12783;48.824;8.662;2023-01-01T06:48:33;4.22;;;1.23;;
24650;SDS011;12783;48.824;8.662;2023-01-01T06:51:09;7.03;;;1.30;;
24650;SDS011;12783;48.824;8.662;2023-01-01T06:53:40;7.40;;;1.60;;
24650;SDS011;12783;48.824;8.662;2023-01-01T06:56:07;11.27;;;1.50;;
24650;SDS011;12783;48.824;8.662;2023-01-01T06:58:34;4.75;;;1.40;;
24650;SDS011;12783;48.824;8.662;2023-01-01T07:03:36;4.90;;;1.75;;
24650;SDS011;12783;48.824;8.662;2023-01-01T07:06:03;10.02;;;1.67;;
24650;SDS011;12783;48.824;8.662;2023-01-01T07:08:30;5.03;;;1.40;;
24650;SDS011;12783;48.824;8.662;2023-01-01T07:10:57;10.15;;;1.77;;
24650;SDS011;12783;48.824;8.662;2023-01-01T07:13:24;6.38;;;1.42;;
24650;SDS011;12783;48.824;8.662;2023-01-01T07:15:51;4.28;;;1.60;;
24650;SDS011;12783;48.824;8.662;2023-01-01T07:18:18;4.28;;;1.42;;
24650;SDS011;12783;48.824;8.662;2023-01-01T07:20:55;3.75;;;1.52;;
24650;SDS011;12783;48.824;8.662;2023-01-01T07:23:24;11.20;;;1.40;;
24650;SDS011;12783;48.824;8.662;2023-01-01T07:25:51;4.35;;;1.45;;
24650;SDS011;12783;48.824;8.662;2023-01-01T07:28:19;5.78;;;1.30;;
24650;SDS011;12783;48.824;8.662;2023-01-01T07:30:46;4.75;;;1.63;;
24650;SDS011;12783;48.824;8.662;2023-01-01T07:33:15;6.68;;;1.40;;
24650;SDS011;12783;48.824;8.662;2023-01-01T07:35:44;9.18;;;1.48;;
24650;SDS011;12783;48.824;8.662;2023-01-01T07:38:11;5.63;;;1.75;;
24650;SDS011;12783;48.824;8.662;2023-01-01T07:40:38;3.60;;;1.40;;
24650;SDS011;12783;48.824;8.662;2023-01-01T07:43:05;7.53;;;1.55;;
24650;SDS011;12783;48.824;8.662;2023-01-01T07:45:32;5.75;;;1.58;;
24650;SDS011;12783;48.824;8.662;2023-01-01T07:47:59;4.28;;;1.40;;
24650;SDS011;12783;48.824;8.662;2023-01-01T07:50:27;3.90;;;1.40;;
24650;SDS011;12783;48.824;8.662;2023-01-01T07:52:56;4.97;;;1.30;;
24650;SDS011;12783;48.824;8.662;2023-01-01T07:55:22;6.82;;;1.55;;
24650;SDS011;12783;48.824;8.662;2023-01-01T07:57:49;2.22;;;1.20;;
24650;SDS011;12783;48.824;8.662;2023-01-01T08:00:17;8.27;;;1.70;;
24650;SDS011;12783;48.824;8.662;2023-01-01T08:02:45;8.13;;;1.55;;
24650;SDS011;12783;48.824;8.662;2023-01-01T08:05:12;5.50;;;2.33;;
24650;SDS011;12783;48.824;8.662;2023-01-01T08:07:39;4.95;;;1.90;;
24650;SDS011;12783;48.824;8.662;2023-01-01T08:10:06;7.28;;;2.20;;
24650;SDS011;12783;48.824;8.662;2023-01-01T08:12:33;9.85;;;1.98;;
24650;SDS011;12783;48.824;8.662;2023-01-01T08:14:59;6.95;;;1.70;;
24650;SDS011;12783;48.824;8.662;2023-01-01T08:17:26;2.92;;;1.38;;
24650;SDS011;12783;48.824;8.662;2023-01-01T08:19:53;6.57;;;1.38;;
24650;SDS011;12783;48.824;8.662;2023-01-01T08:22:19;5.03;;;1.30;;
24650;SDS011;12783;48.824;8.662;2023-01-01T08:24:46;11.23;;;2.13;;
24650;SDS011;12783;48.824;8.662;2023-01-01T08:27:13;6.63;;;1.45;;
24650;SDS011;12783;48.824;8.662;2023-01-01T08:29:41;6.38;;;2.00;;
24650;SDS011;12783;48.824;8.662;2023-01-01T08:32:09;11.93;;;2.35;;
24650;SDS011;12783;48.824;8.662;2023-01-01T08:34:36;6.07;;;1.90;;
24650;SDS011;12783;48.824;8.662;2023-01-01T08:37:03;11.70;;;1.60;;
24650;SDS011;12783;48.824;8.662;2023-01-01T08:39:30;7.88;;;1.65;;
24650;SDS011;12783;48.824;8.662;2023-01-01T08:41:57;4.97;;;1.65;;
24650;SDS011;12783;48.824;8.662;2023-01-01T08:44:23;4.35;;;1.60;;
24650;SDS011;12783;48.824;8.662;2023-01-01T08:46:53;6.53;;;1.67;;
24650;SDS011;12783;48.824;8.662;2023-01-01T08:49:20;4.65;;;1.60;;
24650;SDS011;12783;48.824;8.662;2023-01-01T08:51:46;4.80;;;1.75;;
24650;SDS011;12783;48.824;8.662;2023-01-01T08:54:13;8.95;;;1.83;;
24650;SDS011;12783;48.824;8.662;2023-01-01T08:56:40;6.15;;;1.67;;
24650;SDS011;12783;48.824;8.662;2023-01-01T08:59:06;5.05;;;1.45;;
24650;SDS011;12783;48.824;8.662;2023-01-01T09:01:33;2.58;;;1.23;;
24650;SDS011;12783;48.824;8.662;2023-01-01T09:04:00;3.78;;;1.35;;
24650;SDS011;12783;48.824;8.662;2023-01-01T09:06:27;6.95;;;1.52;;
24650;SDS011;12783;48.824;8.662;2023-01-01T09:08:54;5.57;;;1.35;;
24650;SDS011;12783;48.824;8.662;2023-01-01T09:11:24;6.25;;;1.83;;
24650;SDS011;12783;48.824;8.662;2023-01-01T09:13:52;12.20;;;2.13;;
24650;SDS011;12783;48.824;8.662;2023-01-01T09:16:20;8.38;;;1.83;;
24650;SDS011;12783;48.824;8.662;2023-01-01T09:18:47;4.82;;;1.35;;
24650;SDS011;12783;48.824;8.662;2023-01-01T09:21:14;8.00;;;1.73;;
24650;SDS011;12783;48.824;8.662;2023-01-01T09:23:41;9.85;;;1.40;;
24650;SDS011;12783;48.824;8.662;2023-01-01T09:26:08;5.43;;;1.75;;
24650;SDS011;12783;48.824;8.662;2023-01-01T09:28:35;8.07;;;1.52;;
24650;SDS011;12783;48.824;8.662;2023-01-01T09:31:03;8.77;;;1.70;;
24650;SDS011;12783;48.824;8.662;2023-01-01T09:33:32;4.80;;;1.60;;
24650;SDS011;12783;48.824;8.662;2023-01-01T09:36:14;8.63;;;1.60;;
24650;SDS011;12783;48.824;8.662;2023-01-01T09:38:54;5.30;;;1.33;;
24650;SDS011;12783;48.824;8.662;2023-01-01T09:47:21;5.82;;;1.50;;
24650;SDS011;12783;48.824;8.662;2023-01-01T09:49:58;6.95;;;1.60;;
24650;SDS011;12783;48.824;8.662;2023-01-01T09:52:34;11.57;;;1.63;;
24650;SDS011;12783;48.824;8.662;2023-01-01T09:55:10;6.75;;;2.15;;
24650;SDS011;12783;48.824;8.662;2023-01-01T09:57:45;3.28;;;1.33;;
24650;SDS011;12783;48.824;8.662;2023-01-01T10:00:13;5.43;;;1.92;;
24650;SDS011;12783;48.824;8.662;2023-01-01T10:02:51;5.93;;;1.58;;
24650;SDS011;12783;48.824;8.662;2023-01-01T10:05:30;6.38;;;1.75;;
24650;SDS011;12783;48.824;8.662;2023-01-01T10:08:26;7.75;;;1.60;;
24650;SDS011;12783;48.824;8.662;2023-01-01T10:13:53;7.03;;;1.85;;
24650;SDS011;12783;48.824;8.662;2023-01-01T10:18:56;9.63;;;1.70;;
24650;SDS011;12783;48.824;8.662;2023-01-01T10:21:26;5.80;;;1.83;;
24650;SDS011;12783;48.824;8.662;2023-01-01T10:23:59;5.20;;;1.65;;
24650;SDS011;12783;48.824;8.662;2023-01-01T10:26:30;10.07;;;1.50;;
24650;SDS011;12783;48.824;8.662;2023-01-01T10:31:31;8.25;;;2.28;;
24650;SDS011;12783;48.824;8.662;2023-01-01T10:34:07;6.75;;;1.90;;
24650;SDS011;12783;48.824;8.662;2023-01-01T10:36:41;6.63;;;1.65;;
24650;SDS011;12783;48.824;8.662;2023-01-01T10:39:15;8.93;;;2.15;;
24650;SDS011;12783;48.824;8.662;2023-01-01T10:41:43;11.43;;;2.40;;
24650;SDS011;12783;48.824;8.662;2023-01-01T10:44:10;9.57;;;2.05;;
24650;SDS011;12783;48.824;8.662;2023-01-01T10:46:39;11.52;;;2.22;;
24650;SDS011;12783;48.824;8.662;2023-01-01T10:49:09;5.88;;;1.50;;
24650;SDS011;12783;48.824;8.662;2023-01-01T10:51:41;9.57;;;2.30;;
24650;SDS011;12783;48.824;8.662;2023-01-01T10:54:29;11.90;;;2.42;;
24650;SDS011;12783;48.824;8.662;2023-01-01T10:56:58;10.10;;;1.80;;
24650;SDS011;12783;48.824;8.662;2023-01-01T10:59:33;12.55;;;1.95;;
24650;SDS011;12783;48.824;8.662;2023-01-01T11:04:49;7.43;;;1.83;;
24650;SDS011;12783;48.824;8.662;2023-01-01T11:07:32;13.93;;;5.72;;
24650;SDS011;12783;48.824;8.662;2023-01-01T11:10:00;7.80;;;1.92;;
24650;SDS011;12783;48.824;8.662;2023-01-01T11:12:33;9.13;;;2.00;;
24650;SDS011;12783;48.824;8.662;2023-01-01T11:15:22;9.10;;;2.10;;
24650;SDS011;12783;48.824;8.662;2023-01-01T11:20:37;7.97;;;1.80;;
24650;SDS011;12783;48.824;8.662;2023-01-01T11:25:56;8.57;;;2.20;;
24650;SDS011;12783;48.824;8.662;2023-01-01T11:28:28;13.32;;;1.65;;
24650;SDS011;12783;48.824;8.662;2023-01-01T11:31:03;6.97;;;1.85;;
24650;SDS011;12783;48.824;8.662;2023-01-01T11:33:43;12.98;;;1.88;;
24650;SDS011;12783;48.824;8.662;2023-01-01T11:36:24;8.55;;;1.67;;
24650;SDS011;12783;48.824;8.662;2023-01-01T11:39:04;14.57;;;2.30;;
24650;SDS011;12783;48.824;8.662;2023-01-01T11:41:39;9.32;;;1.85;;
24650;SDS011;12783;48.824;8.662;2023-01-01T11:44:09;9.00;;;2.45;;
24650;SDS011;12783;48.824;8.662;2023-01-01T11:46:37;9.43;;;2.30;;
24650;SDS011;12783;48.824;8.662;2023-01-01T11:49:11;9.50;;;1.90;;
24650;SDS011;12783;48.824;8.662;2023-01-01T11:51:40;7.63;;;2.10;;
24650;SDS011;12783;48.824;8.662;2023-01-01T11:54:50;8.40;;;2.25;;
24650;SDS011;12783;48.824;8.662;2023-01-01T11:57:06;16.17;;;2.60;;
24650;SDS011;12783;48.824;8.662;2023-01-01T11:59:39;11.02;;;1.83;;
24650;SDS011;12783;48.824;8.662;2023-01-01T12:02:30;9.15;;;1.65;;
24650;SDS011;12783;48.824;8.662;2023-01-01T12:05:20;10.25;;;2.03;;
24650;SDS011;12783;48.824;8.662;2023-01-01T12:07:49;12.80;;;1.60;;
24650;SDS011;12783;48.824;8.662;2023-01-01T12:10:21;12.00;;;2.10;;
24650;SDS011;12783;48.824;8.662;2023-01-01T12:12:56;7.68;;;1.75;;
24650;SDS011;12783;48.824;8.662;2023-01-01T12:15:31;11.75;;;2.13;;
24650;SDS011;12783;48.824;8.662;2023-01-01T12:20:36;7.32;;;1.85;;
24650;SDS011;12783;48.824;8.662;2023-01-01T12:23:06;7.63;;;2.75;;
24650;SDS011;12783;48.824;8.662;2023-01-01T12:25:38;8.32;;;2.13;;
24650;SDS011;12783;48.824;8.662;2023-01-01T12:34:03;11.48;;;2.08;;
24650;SDS011;12783;48.824;8.662;2023-01-01T12:36:59;5.28;;;1.77;;
24650;SDS011;12783;48.824;8.662;2023-01-01T12:39:54;11.30;;;2.03;;
24650;SDS011;12783;48.824;8.662;2023-01-01T12:42:35;9.20;;;1.95;;
24650;SDS011;12783;48.824;8.662;2023-01-01T12:45:19;7.75;;;1.83;;
24650;SDS011;12783;48.824;8.662;2023-01-01T12:59:21;11.73;;;2.10;;
24650;SDS011;12783;48.824;8.662;2023-01-01T13:01:50;12.10;;;1.70;;
24650;SDS011;12783;48.824;8.662;2023-01-01T13:04:21;7.00;;;1.50;;
24650;SDS011;12783;48.824;8.662;2023-01-01T13:09:32;3.92;;;1.70;;
24650;SDS011;12783;48.824;8.662;2023-01-01T13:12:03;5.97;;;1.42;;
24650;SDS011;12783;48.824;8.662;2023-01-01T13:14:39;13.40;;;1.80;;
24650;SDS011;12783;48.824;8.662;2023-01-01T13:17:17;7.85;;;1.80;;
24650;SDS011;12783;48.824;8.662;2023-01-01T13:19:48;8.63;;;1.98;;
24650;SDS011;12783;48.824;8.662;2023-01-01T13:35:45;4.43;;;1.48;;
24650;SDS011;12783;48.824;8.662;2023-01-01T13:49:21;7.50;;;1.70;;
24650;SDS011;12783;48.824;8.662;2023-01-01T14:00:21;5.25;;;1.60;;
24650;SDS011;12783;48.824;8.662;2023-01-01T14:02:53;8.57;;;1.70;;
24650;SDS011;12783;48.824;8.662;2023-01-01T14:05:31;6.82;;;1.55;;
24650;SDS011;12783;48.824;8.662;2023-01-01T14:08:27;5.35;;;1.48;;
24650;SDS011;12783;48.824;8.662;2023-01-01T14:10:58;6.97;;;2.20;;
24650;SDS011;12783;48.824;8.662;2023-01-01T14:13:27;9.55;;;1.92;;
24650;SDS011;12783;48.824;8.662;2023-01-01T14:15:58;4.30;;;1.80;;
24650;SDS011;12783;48.824;8.662;2023-01-01T14:18:33;8.48;;;2.00;;
24650;SDS011;12783;48.824;8.662;2023-01-01T14:21:07;5.50;;;2.05;;
24650;SDS011;12783;48.824;8.662;2023-01-01T14:23:40;6.68;;;1.90;;
24650;SDS011;12783;48.824;8.662;2023-01-01T14:26:09;5.38;;;2.10;;
24650;SDS011;12783;48.824;8.662;2023-01-01T14:28:39;5.30;;;2.10;;
24650;SDS011;12783;48.824;8.662;2023-01-01T14:31:10;7.25;;;2.15;;
24650;SDS011;12783;48.824;8.662;2023-01-01T14:33:39;4.63;;;1.70;;
24650;SDS011;12783;48.824;8.662;2023-01-01T14:36:13;3.05;;;1.70;;
24650;SDS011;12783;48.824;8.662;2023-01-01T14:38:44;9.45;;;1.90;;
24650;SDS011;12783;48.824;8.662;2023-01-01T14:44:01;7.07;;;2.00;;
24650;SDS011;12783;48.824;8.662;2023-01-01T14:46:29;4.93;;;2.00;;
24650;SDS011;12783;48.824;8.662;2023-01-01T14:49:00;6.35;;;1.83;;
24650;SDS011;12783;48.824;8.662;2023-01-01T14:51:29;4.13;;;1.73;;
24650;SDS011;12783;48.824;8.662;2023-01-01T14:53:57;7.70;;;1.95;;
24650;SDS011;12783;48.824;8.662;2023-01-01T14:56:26;5.00;;;1.73;;
24650;SDS011;12783;48.824;8.662;2023-01-01T14:59:32;5.95;;;2.13;;
24650;SDS011;12783;48.824;8.662;2023-01-01T15:02:02;6.10;;;2.25;;
24650;SDS011;12783;48.824;8.662;2023-01-01T15:04:29;6.38;;;2.53;;
24650;SDS011;12783;48.824;8.662;2023-01-01T15:06:59;5.20;;;2.38;;
24650;SDS011;12783;48.824;8.662;2023-01-01T15:09:26;4.82;;;2.58;;
24650;SDS011;12783;48.824;8.662;2023-01-01T15:11:54;5.15;;;2.38;;
24650;SDS011;12783;48.824;8.662;2023-01-01T15:17:01;11.52;;;3.75;;
24650;SDS011;12783;48.824;8.662;2023-01-01T15:19:32;8.80;;;2.83;;
24650;SDS011;12783;48.824;8.662;2023-01-01T15:22:00;6.55;;;2.60;;
24650;SDS011;12783;48.824;8.662;2023-01-01T15:24:34;9.15;;;2.63;;
24650;SDS011;12783;48.824;8.662;2023-01-01T15:27:02;8.57;;;2.70;;
24650;SDS011;12783;48.824;8.662;2023-01-01T15:29:35;8.25;;;2.95;;
24650;SDS011;12783;48.824;8.662;2023-01-01T15:32:04;6.95;;;2.25;;
24650;SDS011;12783;48.824;8.662;2023-01-01T15:34:37;11.35;;;2.60;;
24650;SDS011;12783;48.824;8.662;2023-01-01T15:37:13;6.55;;;2.65;;
24650;SDS011;12783;48.824;8.662;2023-01-01T15:39:54;9.88;;;2.80;;
24650;SDS011;12783;48.824;8.662;2023-01-01T15:44:54;9.45;;;2.42;;
24650;SDS011;12783;48.824;8.662;2023-01-01T15:47:21;8.48;;;2.10;;
24650;SDS011;12783;48.824;8.662;2023-01-01T15:50:08;5.28;;;2.13;;
24650;SDS011;12783;48.824;8.662;2023-01-01T15:52:36;10.70;;;3.03;;
24650;SDS011;12783;48.824;8.662;2023-01-01T15:55:03;8.38;;;2.75;;
24650;SDS011;12783;48.824;8.662;2023-01-01T15:57:30;9.75;;;2.42;;
24650;SDS011;12783;48.824;8.662;2023-01-01T15:59:57;7.38;;;2.40;;
24650;SDS011;12783;48.824;8.662;2023-01-01T16:02:30;4.32;;;2.45;;
24650;SDS011;12783;48.824;8.662;2023-01-01T16:04:58;5.25;;;2.17;;
24650;SDS011;12783;48.824;8.662;2023-01-01T16:07:25;5.80;;;2.22;;
24650;SDS011;12783;48.824;8.662;2023-01-01T16:09:53;6.95;;;2.25;;
24650;SDS011;12783;48.824;8.662;2023-01-01T16:12:23;6.53;;;2.42;;
24650;SDS011;12783;48.824;8.662;2023-01-01T16:14:50;7.75;;;2.47;;
24650;SDS011;12783;48.824;8.662;2023-01-01T16:17:18;9.10;;;2.70;;
24650;SDS011;12783;48.824;8.662;2023-01-01T16:19:46;7.72;;;2.65;;
24650;SDS011;12783;48.824;8.662;2023-01-01T16:22:14;5.88;;;2.28;;
24650;SDS011;12783;48.824;8.662;2023-01-01T16:24:42;6.45;;;2.35;;
24650;SDS011;12783;48.824;8.662;2023-01-01T16:27:10;6.50;;;2.50;;
24650;SDS011;12783;48.824;8.662;2023-01-01T16:29:37;11.55;;;2.55;;
24650;SDS011;12783;48.824;8.662;2023-01-01T16:32:17;7.00;;;2.67;;
24650;SDS011;12783;48.824;8.662;2023-01-01T16:34:45;5.40;;;2.20;;
24650;SDS011;12783;48.824;8.662;2023-01-01T16:37:12;4.40;;;2.40;;
24650;SDS011;12783;48.824;8.662;2023-01-01T16:39:39;8.52;;;2.72;;
24650;SDS011;12783;48.824;8.662;2023-01-01T16:42:09;9.07;;;2.38;;
24650;SDS011;12783;48.824;8.662;2023-01-01T16:44:38;7.32;;;2.40;;
24650;SDS011;12783;48.824;8.662;2023-01-01T16:47:06;5.10;;;2.25;;
24650;SDS011;12783;48.824;8.662;2023-01-01T16:49:33;4.30;;;2.22;;
24650;SDS011;12783;48.824;8.662;2023-01-01T16:51:59;7.85;;;2.30;;
24650;SDS011;12783;48.824;8.662;2023-01-01T16:54:26;4.30;;;2.20;;
24650;SDS011;12783;48.824;8.662;2023-01-01T16:56:53;5.95;;;2.55;;
24650;SDS011;12783;48.824;8.662;2023-01-01T16:59:20;4.85;;;2.63;;
24650;SDS011;12783;48.824;8.662;2023-01-01T17:01:48;5.75;;;2.75;;
24650;SDS011;12783;48.824;8.662;2023-01-01T17:04:14;6.47;;;2.30;;
24650;SDS011;12783;48.824;8.662;2023-01-01T17:06:41;7.10;;;2.20;;
24650;SDS011;12783;48.824;8.662;2023-01-01T17:09:08;2.60;;;1.90;;
24650;SDS011;12783;48.824;8.662;2023-01-01T17:11:35;6.60;;;2.30;;